createdAt,value
2023-04-19T00:02:03.237Z,10.70
2023-04-19T00:04:32.412Z,10.40
2023-04-19T00:07:00.952Z,9.80
2023-04-19T00:09:29.333Z,9.00
2023-04-19T00:11:57.701Z,8.80
2023-04-19T00:14:36.199Z,9.00
2023-04-19T00:17:36.138Z,8.50
2023-04-19T00:20:06.435Z,8.50
2023-04-19T00:22:35.660Z,8.90
2023-04-19T00:25:04.757Z,8.60
2023-04-19T00:27:33.186Z,8.70
2023-04-19T00:30:03.203Z,8.90
2023-04-19T00:32:31.769Z,8.60
2023-04-19T00:35:00.181Z,8.70
2023-04-19T00:37:28.587Z,8.80
2023-04-19T00:39:56.954Z,8.80
2023-04-19T00:42:25.331Z,8.70
2023-04-19T00:44:53.735Z,8.60
2023-04-19T00:47:22.317Z,8.70
2023-04-19T00:49:50.715Z,8.70
2023-04-19T00:52:19.180Z,9.00
2023-04-19T00:54:47.731Z,8.80
2023-04-19T00:57:17.528Z,8.90
2023-04-19T00:59:46.142Z,9.20
2023-04-19T01:02:14.665Z,9.10
2023-04-19T01:04:43.153Z,8.90
2023-04-19T01:07:11.587Z,8.90
2023-04-19T01:09:45.115Z,8.70
2023-04-19T01:12:13.623Z,8.90
2023-04-19T01:14:42.402Z,8.90
2023-04-19T01:17:10.957Z,9.00
2023-04-19T01:19:39.524Z,9.30
2023-04-19T01:22:08.026Z,9.50
2023-04-19T01:24:36.547Z,9.50
2023-04-19T01:27:05.076Z,9.60
2023-04-19T01:29:33.443Z,9.50
2023-04-19T01:32:01.861Z,8.90
2023-04-19T01:34:30.475Z,8.70
2023-04-19T01:36:58.845Z,8.40
2023-04-19T01:39:30.410Z,8.50
2023-04-19T01:41:58.803Z,8.10
2023-04-19T01:44:27.867Z,8.50
2023-04-19T01:46:56.976Z,8.00
2023-04-19T01:49:25.474Z,7.80
2023-04-19T01:51:53.981Z,7.70
2023-04-19T01:54:22.458Z,7.90
2023-04-19T01:56:50.871Z,8.00
2023-04-19T01:59:19.303Z,8.00
2023-04-19T02:01:47.782Z,8.40
2023-04-19T02:04:16.676Z,8.40
2023-04-19T02:06:45.308Z,8.30
2023-04-19T02:09:13.760Z,8.40
2023-04-19T02:11:42.157Z,8.30
2023-04-19T02:14:10.605Z,8.10
2023-04-19T02:16:39.089Z,7.70
2023-04-19T02:19:07.760Z,7.80
2023-04-19T02:21:36.181Z,7.60
2023-04-19T02:24:04.849Z,7.40
2023-04-19T02:26:33.327Z,6.90
2023-04-19T02:29:01.864Z,7.00
2023-04-19T02:31:30.309Z,6.90
2023-04-19T02:33:58.844Z,7.00
2023-04-19T02:36:27.358Z,6.90
2023-04-19T02:38:55.918Z,6.90
2023-04-19T02:41:24.443Z,6.60
2023-04-19T02:43:52.829Z,6.70
2023-04-19T02:46:21.292Z,6.90
2023-04-19T02:48:50.065Z,7.00
2023-04-19T02:51:18.963Z,7.00
2023-04-19T02:53:47.397Z,7.20
2023-04-19T02:56:16.545Z,7.20
2023-04-19T02:58:44.998Z,7.20
2023-04-19T03:01:13.592Z,7.20
2023-04-19T03:03:42.199Z,7.30
2023-04-19T03:06:11.399Z,7.00
2023-04-19T03:08:40.122Z,6.80
2023-04-19T03:11:08.722Z,6.90
2023-04-19T03:13:37.426Z,7.00
2023-04-19T03:16:06.685Z,6.80
2023-04-19T03:18:38.052Z,6.90
2023-04-19T03:21:09.939Z,6.90
2023-04-19T03:23:38.658Z,7.10
2023-04-19T03:26:07.112Z,7.30
2023-04-19T03:28:35.816Z,7.20
2023-04-19T03:31:04.326Z,6.90
2023-04-19T03:33:32.887Z,7.00
2023-04-19T03:36:01.501Z,7.10
2023-04-19T03:38:30.068Z,7.20
2023-04-19T03:40:58.581Z,7.10
2023-04-19T03:43:27.086Z,7.00
2023-04-19T03:45:55.486Z,7.10
2023-04-19T03:48:23.907Z,7.00
2023-04-19T03:50:52.393Z,6.80
2023-04-19T03:53:20.889Z,6.90
2023-04-19T03:55:49.412Z,6.80
2023-04-19T03:58:19.031Z,7.00
2023-04-19T04:00:47.451Z,6.90
2023-04-19T04:03:16.156Z,6.90
2023-04-19T04:05:44.832Z,6.70
2023-04-19T04:08:14.826Z,6.90
2023-04-19T04:10:43.372Z,6.60
2023-04-19T04:13:11.836Z,6.90
2023-04-19T04:15:40.265Z,7.00
2023-04-19T04:18:09.399Z,6.90
2023-04-19T04:20:37.868Z,6.50
2023-04-19T04:23:06.362Z,6.60
2023-04-19T04:25:38.297Z,6.60
2023-04-19T04:28:07.190Z,7.10
2023-04-19T04:30:37.008Z,6.70
2023-04-19T04:33:05.542Z,6.90
2023-04-19T04:35:34.564Z,6.60
2023-04-19T04:38:11.161Z,6.40
2023-04-19T04:40:56.961Z,6.60
2023-04-19T04:43:30.612Z,6.60
2023-04-19T04:45:59.194Z,6.50
2023-04-19T04:48:27.692Z,6.40
2023-04-19T04:50:56.177Z,6.50
2023-04-19T04:53:27.009Z,6.50
2023-04-19T04:55:58.263Z,6.60
2023-04-19T04:58:26.706Z,6.50
2023-04-19T05:00:55.613Z,6.80
2023-04-19T05:03:24.076Z,6.50
2023-04-19T05:05:52.458Z,6.50
2023-04-19T05:08:20.962Z,6.60
2023-04-19T05:10:49.413Z,6.50
2023-04-19T05:13:17.816Z,6.50
2023-04-19T05:15:46.207Z,6.50
2023-04-19T05:18:14.702Z,6.60
2023-04-19T05:20:43.098Z,6.40
2023-04-19T05:23:12.396Z,6.30
2023-04-19T05:25:40.785Z,6.30
2023-04-19T05:28:09.229Z,6.50
2023-04-19T05:30:37.732Z,6.30
2023-04-19T05:33:06.966Z,6.60
2023-04-19T05:35:35.389Z,6.20
2023-04-19T05:38:04.265Z,6.30
2023-04-19T05:40:33.017Z,6.60
2023-04-19T05:43:01.392Z,6.50
2023-04-19T05:45:29.834Z,6.30
2023-04-19T05:47:58.286Z,6.20
2023-04-19T05:50:26.737Z,6.20
2023-04-19T05:52:55.122Z,6.30
2023-04-19T05:55:23.561Z,6.00
2023-04-19T05:57:52.202Z,5.90
2023-04-19T06:00:20.836Z,5.90
2023-04-19T06:02:49.469Z,6.20
2023-04-19T06:05:18.108Z,6.20
2023-04-19T06:07:54.374Z,6.20
2023-04-19T06:10:25.810Z,6.00
2023-04-19T06:12:57.125Z,5.80
2023-04-19T06:15:26.826Z,6.00
2023-04-19T06:17:55.221Z,6.30
2023-04-19T06:20:23.584Z,6.30
2023-04-19T06:22:51.990Z,6.30
2023-04-19T06:25:21.522Z,6.20
2023-04-19T06:27:49.940Z,6.50
2023-04-19T06:30:20.953Z,6.30
2023-04-19T06:32:49.570Z,6.20
2023-04-19T06:35:18.224Z,6.20
2023-04-19T06:37:46.628Z,6.30
2023-04-19T06:40:15.041Z,6.30
2023-04-19T06:42:43.461Z,6.30
2023-04-19T06:45:12.482Z,6.20
2023-04-19T06:47:40.907Z,6.30
2023-04-19T06:50:09.947Z,6.10
2023-04-19T06:52:38.609Z,6.30
2023-04-19T06:55:11.170Z,6.00
2023-04-19T06:57:39.588Z,6.20
2023-04-19T07:00:08.805Z,6.00
2023-04-19T07:02:37.482Z,6.00
2023-04-19T07:05:06.335Z,6.20
2023-04-19T07:07:34.783Z,6.00
2023-04-19T07:10:03.195Z,5.80
2023-04-19T07:12:31.592Z,6.20
2023-04-19T07:15:00.021Z,6.00
2023-04-19T07:17:28.610Z,5.80
2023-04-19T07:19:57.100Z,5.80
2023-04-19T07:22:25.693Z,5.80
2023-04-19T07:24:55.020Z,5.90
2023-04-19T07:27:23.412Z,5.90
2023-04-19T07:29:52.025Z,5.80
2023-04-19T07:32:21.042Z,5.80
2023-04-19T07:34:49.617Z,5.80
2023-04-19T07:37:18.037Z,6.00
2023-04-19T07:39:46.718Z,5.80
2023-04-19T07:42:15.097Z,5.90
2023-04-19T07:44:43.480Z,6.00
2023-04-19T07:47:12.152Z,5.80
2023-04-19T07:49:40.576Z,5.90
2023-04-19T07:52:09.802Z,5.80
2023-04-19T07:54:40.065Z,5.80
2023-04-19T07:57:08.498Z,6.00
2023-04-19T07:59:37.088Z,5.80
2023-04-19T08:02:05.529Z,6.20
2023-04-19T08:04:34.240Z,5.80
2023-04-19T08:07:04.810Z,5.80
2023-04-19T08:09:35.325Z,6.00
2023-04-19T08:12:03.736Z,5.80
2023-04-19T08:14:40.530Z,5.80
2023-04-19T08:19:52.421Z,5.80
2023-04-19T08:22:22.485Z,6.00
2023-04-19T08:24:54.572Z,6.30
2023-04-19T08:27:23.445Z,6.10
2023-04-19T08:29:52.299Z,6.30
2023-04-19T08:32:20.721Z,5.90
2023-04-19T08:34:49.228Z,6.00
2023-04-19T08:37:17.598Z,5.90
2023-04-19T08:39:46.051Z,5.70
2023-04-19T08:42:28.837Z,5.80
2023-04-19T08:50:20.636Z,6.00
2023-04-19T08:53:08.557Z,6.00
2023-04-19T08:56:06.957Z,6.00
2023-04-19T08:58:56.977Z,6.00
2023-04-19T09:04:07.358Z,5.90
2023-04-19T09:06:44.719Z,5.90
2023-04-19T09:11:53.439Z,6.30
2023-04-19T09:14:23.243Z,5.80
2023-04-19T09:16:53.015Z,5.90
2023-04-19T09:19:25.134Z,5.70
2023-04-19T09:21:55.222Z,6.00
2023-04-19T09:27:14.144Z,5.90
2023-04-19T09:29:42.831Z,6.00
2023-04-19T09:32:13.057Z,6.00
2023-04-19T09:34:55.867Z,5.70
2023-04-19T09:37:50.821Z,6.00
2023-04-19T09:40:27.821Z,5.60
2023-04-19T09:45:31.162Z,5.60
2023-04-19T09:48:05.013Z,5.60
2023-04-19T09:50:35.972Z,5.90
2023-04-19T09:53:15.292Z,6.00
2023-04-19T09:55:57.212Z,5.70
2023-04-19T09:58:38.296Z,6.00
2023-04-19T10:01:17.263Z,5.80
2023-04-19T10:03:51.601Z,5.90
2023-04-19T10:08:58.628Z,5.50
2023-04-19T10:11:32.125Z,5.90
2023-04-19T10:14:03.972Z,5.60
2023-04-19T10:16:33.521Z,5.90
2023-04-19T10:19:09.333Z,5.90
2023-04-19T10:21:39.565Z,5.60
2023-04-19T10:24:08.466Z,5.70
2023-04-19T10:27:07.705Z,5.50
2023-04-19T10:29:57.981Z,5.60
2023-04-19T10:32:38.092Z,5.50
2023-04-19T10:35:25.723Z,5.60
2023-04-19T10:38:07.876Z,5.80
2023-04-19T10:41:01.830Z,6.00
2023-04-19T10:43:32.097Z,5.70
2023-04-19T10:46:02.569Z,5.90
2023-04-19T10:48:34.224Z,5.40
2023-04-19T10:51:16.662Z,5.90
2023-04-19T10:53:59.437Z,5.60
2023-04-19T10:56:36.674Z,5.90
2023-04-19T10:59:15.792Z,5.90
2023-04-19T11:01:44.303Z,5.60
2023-04-19T11:04:14.622Z,5.90
2023-04-19T11:06:55.157Z,5.60
2023-04-19T11:09:27.738Z,5.70
2023-04-19T11:12:00.628Z,5.40
2023-04-19T11:14:33.883Z,5.60
2023-04-19T11:17:05.303Z,5.60
2023-04-19T11:19:33.760Z,5.60
2023-04-19T11:22:02.249Z,5.70
2023-04-19T11:24:30.652Z,5.60
2023-04-19T11:26:59.113Z,5.70
2023-04-19T11:29:27.606Z,5.60
2023-04-19T11:31:56.675Z,5.60
2023-04-19T11:34:25.281Z,5.70
2023-04-19T11:36:54.589Z,5.70
2023-04-19T11:39:23.086Z,5.60
2023-04-19T11:41:51.581Z,5.50
2023-04-19T11:44:23.520Z,5.50
2023-04-19T11:47:06.195Z,5.20
2023-04-19T11:49:35.355Z,5.10
2023-04-19T11:52:06.867Z,5.10
2023-04-19T11:54:35.420Z,5.20
2023-04-19T11:57:06.488Z,5.20
2023-04-19T11:59:36.752Z,5.30
2023-04-19T12:02:12.614Z,5.40
2023-04-19T12:04:42.203Z,5.30
2023-04-19T12:07:12.133Z,5.10
2023-04-19T12:09:40.622Z,5.30
2023-04-19T12:12:09.115Z,5.10
2023-04-19T12:14:37.473Z,5.10
2023-04-19T12:17:10.181Z,5.30
2023-04-19T12:19:47.045Z,5.30
2023-04-19T12:22:21.685Z,5.30
2023-04-19T12:24:52.935Z,5.30
2023-04-19T12:27:21.403Z,5.00
2023-04-19T12:29:49.850Z,5.10
2023-04-19T12:32:18.438Z,5.30
2023-04-19T12:34:47.028Z,5.30
2023-04-19T12:37:15.411Z,5.00
2023-04-19T12:39:43.780Z,5.30
2023-04-19T12:42:12.191Z,5.00
2023-04-19T12:44:40.568Z,5.00
2023-04-19T12:47:08.980Z,5.30
2023-04-19T12:49:37.402Z,5.00
2023-04-19T12:52:06.846Z,4.80
2023-04-19T12:54:35.229Z,5.00
2023-04-19T12:57:03.744Z,4.90
2023-04-19T12:59:32.412Z,5.00
2023-04-19T13:02:00.870Z,4.70
2023-04-19T13:04:29.346Z,4.50
2023-04-19T13:06:57.894Z,4.40
2023-04-19T13:09:27.758Z,4.50
2023-04-19T13:12:02.324Z,4.60
2023-04-19T13:14:30.829Z,4.70
2023-04-19T13:16:59.259Z,4.40
2023-04-19T13:19:28.001Z,4.40
2023-04-19T13:21:56.523Z,4.90
2023-04-19T13:24:24.948Z,5.00
2023-04-19T13:26:55.866Z,4.70
2023-04-19T13:29:24.536Z,4.80
2023-04-19T13:31:52.954Z,5.10
2023-04-19T13:34:21.895Z,4.90
2023-04-19T13:36:50.348Z,4.70
2023-04-19T13:39:18.804Z,4.90
2023-04-19T13:41:47.198Z,5.20
2023-04-19T13:44:15.824Z,5.00
2023-04-19T13:46:44.504Z,4.80
2023-04-19T13:49:12.936Z,5.10
2023-04-19T13:51:49.535Z,5.00
2023-04-19T13:54:19.922Z,5.00
2023-04-19T13:56:51.973Z,5.30
2023-04-19T13:59:21.772Z,5.10
2023-04-19T14:01:50.276Z,5.40
2023-04-19T14:04:20.087Z,5.60
2023-04-19T14:06:49.297Z,5.30
2023-04-19T14:09:17.809Z,5.40
2023-04-19T14:11:46.325Z,5.00
2023-04-19T14:14:15.055Z,5.40
2023-04-19T14:16:43.785Z,5.60
2023-04-19T14:19:12.404Z,5.40
2023-04-19T14:21:40.808Z,5.90
2023-04-19T14:24:09.300Z,5.70
2023-04-19T14:26:37.915Z,5.80
2023-04-19T14:29:07.358Z,5.90
2023-04-19T14:31:35.896Z,6.00
2023-04-19T14:34:04.293Z,5.90
2023-04-19T14:36:32.654Z,5.80
2023-04-19T14:39:01.033Z,6.10
2023-04-19T14:41:29.487Z,6.30
2023-04-19T14:43:57.869Z,6.40
2023-04-19T14:46:26.707Z,6.80
2023-04-19T14:48:55.257Z,7.20
2023-04-19T14:51:23.623Z,7.40
2023-04-19T14:53:52.056Z,7.20
2023-04-19T14:56:20.964Z,7.10
2023-04-19T14:58:49.372Z,7.00
2023-04-19T15:01:17.789Z,6.80
2023-04-19T15:03:46.494Z,6.90
2023-04-19T15:06:15.258Z,6.50
2023-04-19T15:08:43.990Z,6.40
2023-04-19T15:11:12.408Z,6.50
2023-04-19T15:13:41.277Z,7.00
2023-04-19T15:16:09.957Z,6.70
2023-04-19T15:18:38.395Z,7.00
2023-04-19T15:21:07.231Z,6.50
2023-04-19T15:23:36.001Z,6.80
2023-04-19T15:26:04.592Z,6.70
2023-04-19T15:28:38.342Z,6.60
2023-04-19T15:31:08.249Z,6.50
2023-04-19T15:33:38.193Z,6.40
2023-04-19T15:36:06.889Z,6.60
2023-04-19T15:38:35.424Z,6.50
2023-04-19T15:41:04.108Z,6.80
2023-04-19T15:43:32.495Z,6.80
2023-04-19T15:46:02.064Z,6.70
2023-04-19T15:48:30.697Z,6.60
2023-04-19T15:50:59.870Z,6.70
2023-04-19T15:53:28.232Z,6.80
2023-04-19T15:55:57.455Z,6.50
2023-04-19T15:58:26.270Z,6.60
2023-04-19T16:00:54.759Z,6.30
2023-04-19T16:03:23.311Z,6.10
2023-04-19T16:05:52.451Z,5.90
2023-04-19T16:08:21.148Z,6.00
2023-04-19T16:10:50.190Z,6.30
2023-04-19T16:13:18.649Z,6.30
2023-04-19T16:15:47.131Z,6.30
2023-04-19T16:18:15.523Z,6.00
2023-04-19T16:20:43.917Z,6.30
2023-04-19T16:23:12.811Z,6.40
2023-04-19T16:25:42.171Z,6.50
2023-04-19T16:28:10.663Z,6.60
2023-04-19T16:30:39.240Z,6.60
2023-04-19T16:33:08.139Z,6.60
2023-04-19T16:35:36.678Z,7.20
2023-04-19T16:38:05.357Z,8.30
2023-04-19T16:40:33.782Z,8.90
2023-04-19T16:43:02.349Z,9.10
2023-04-19T16:45:30.770Z,9.70
2023-04-19T16:47:59.380Z,9.70
2023-04-19T16:50:27.846Z,9.40
2023-04-19T16:52:56.204Z,9.80
2023-04-19T16:55:24.674Z,10.00
2023-04-19T16:57:54.518Z,10.10
2023-04-19T17:00:23.777Z,10.20
2023-04-19T17:02:53.984Z,10.00
2023-04-19T17:05:22.875Z,9.40
2023-04-19T17:07:53.802Z,8.90
2023-04-19T17:10:23.957Z,8.60
2023-04-19T17:12:52.324Z,8.60
2023-04-19T17:15:20.869Z,8.40
2023-04-19T17:17:49.339Z,7.90
2023-04-19T17:20:17.796Z,7.70
2023-04-19T17:22:46.558Z,7.60
2023-04-19T17:25:15.145Z,7.60
2023-04-19T17:27:43.586Z,7.60
2023-04-19T17:30:12.380Z,7.70
2023-04-19T17:32:41.467Z,7.60
2023-04-19T17:35:10.305Z,7.60
2023-04-19T17:37:38.742Z,7.50
2023-04-19T17:40:09.170Z,7.50
2023-04-19T17:42:37.669Z,7.70
2023-04-19T17:45:11.553Z,7.70
2023-04-19T17:47:40.579Z,7.80
2023-04-19T17:50:11.330Z,7.70
2023-04-19T17:52:40.363Z,7.50
2023-04-19T17:55:09.140Z,7.60
2023-04-19T17:57:37.616Z,7.90
2023-04-19T18:00:08.519Z,8.10
2023-04-19T18:02:37.264Z,8.40
2023-04-19T18:05:06.254Z,8.60
2023-04-19T18:07:37.216Z,8.60
2023-04-19T18:10:06.255Z,8.20
2023-04-19T18:12:34.729Z,8.30
2023-04-19T18:15:03.136Z,8.30
2023-04-19T18:17:32.072Z,8.40
2023-04-19T18:20:00.574Z,8.50
2023-04-19T18:22:29.123Z,8.20
2023-04-19T18:24:58.365Z,8.40
2023-04-19T18:27:27.115Z,8.70
2023-04-19T18:29:56.320Z,8.90
2023-04-19T18:32:27.889Z,9.00
2023-04-19T18:34:56.327Z,8.80
2023-04-19T18:37:24.710Z,9.00
2023-04-19T18:39:53.118Z,9.20
2023-04-19T18:42:21.532Z,8.80
2023-04-19T18:44:54.353Z,9.20
2023-04-19T18:47:23.831Z,9.50
2023-04-19T18:50:04.655Z,10.40
2023-04-19T18:52:38.357Z,11.00
2023-04-19T18:55:08.070Z,11.40
2023-04-19T18:57:36.726Z,11.70
2023-04-19T19:00:12.047Z,12.20
2023-04-19T19:02:41.398Z,12.60
2023-04-19T19:05:13.437Z,12.80
2023-04-19T19:07:43.057Z,12.70
2023-04-19T19:12:43.704Z,11.60
2023-04-19T19:15:12.272Z,11.50
2023-04-19T19:17:40.901Z,12.00
2023-04-19T19:20:10.912Z,12.50
2023-04-19T19:22:40.214Z,12.70
2023-04-19T19:25:09.148Z,12.20
2023-04-19T19:27:38.792Z,12.00
2023-04-19T19:30:08.889Z,12.00
2023-04-19T19:32:37.399Z,10.80
2023-04-19T19:35:08.209Z,11.10
2023-04-19T19:37:39.992Z,10.80
2023-04-19T19:40:11.288Z,10.50
2023-04-19T19:42:42.817Z,10.20
2023-04-19T19:45:11.650Z,10.60
2023-04-19T19:47:45.278Z,9.80
2023-04-19T19:50:57.733Z,10.20
2023-04-19T19:53:03.456Z,10.10
2023-04-19T19:55:31.940Z,10.20
2023-04-19T20:00:44.888Z,10.40
2023-04-19T20:03:13.946Z,10.60
2023-04-19T20:05:42.747Z,10.70
2023-04-19T20:08:13.241Z,10.60
2023-04-19T20:10:43.824Z,10.20
2023-04-19T20:13:13.807Z,9.40
2023-04-19T20:15:42.615Z,8.90
2023-04-19T20:18:11.080Z,8.30
2023-04-19T20:20:39.729Z,7.90
2023-04-19T20:23:08.212Z,7.60
2023-04-19T20:25:37.197Z,7.80
2023-04-19T20:28:06.407Z,8.00
2023-04-19T20:30:34.924Z,9.00
2023-04-19T20:33:03.412Z,9.30
2023-04-19T20:35:31.981Z,9.70
2023-04-19T20:38:03.424Z,9.80
2023-04-19T20:40:33.010Z,9.50
2023-04-19T20:43:01.788Z,9.60
2023-04-19T20:45:30.626Z,9.80
2023-04-19T20:47:59.378Z,9.80
2023-04-19T20:50:28.095Z,9.90
2023-04-19T20:52:57.409Z,9.90
2023-04-19T20:55:26.014Z,10.00
2023-04-19T20:57:54.410Z,9.60
2023-04-19T21:00:22.841Z,9.70
2023-04-19T21:02:51.622Z,9.70
2023-04-19T21:05:20.281Z,9.90
2023-04-19T21:07:48.758Z,9.90
2023-04-19T21:10:18.032Z,10.20
2023-04-19T21:12:46.591Z,10.10
2023-04-19T21:15:15.228Z,10.50
2023-04-19T21:17:44.024Z,10.60
2023-04-19T21:20:14.324Z,10.50
2023-04-19T21:22:44.549Z,10.50
2023-04-19T21:25:13.906Z,10.00
2023-04-19T21:27:43.443Z,10.00
2023-04-19T21:30:12.684Z,10.10
2023-04-19T21:32:41.222Z,10.40
2023-04-19T21:35:10.025Z,10.70
2023-04-19T21:37:38.817Z,10.40
2023-04-19T21:40:08.095Z,10.60
2023-04-19T21:42:37.239Z,10.40
2023-04-19T21:45:06.223Z,10.70
2023-04-19T21:47:35.584Z,11.20
2023-04-19T21:50:04.165Z,11.10
2023-04-19T21:52:32.646Z,11.40
2023-04-19T21:55:01.012Z,11.40
2023-04-19T21:57:31.606Z,11.20
2023-04-19T22:00:00.329Z,10.90
2023-04-19T22:02:28.893Z,10.60
2023-04-19T22:05:00.986Z,10.50
2023-04-19T22:07:31.842Z,10.40
2023-04-19T22:10:02.089Z,10.00
2023-04-19T22:12:30.480Z,9.90
2023-04-19T22:14:58.879Z,9.70
2023-04-19T22:17:28.548Z,9.50
2023-04-19T22:19:57.236Z,9.00
2023-04-19T22:22:26.113Z,8.70
2023-04-19T22:24:58.050Z,8.60
2023-04-19T22:27:26.996Z,8.10
2023-04-19T22:29:55.465Z,7.40
2023-04-19T22:32:23.982Z,7.20
2023-04-19T22:34:52.471Z,6.70
2023-04-19T22:37:20.850Z,6.30
2023-04-19T22:39:49.227Z,6.10
2023-04-19T22:42:17.716Z,5.90
2023-04-19T22:44:46.274Z,6.00
2023-04-19T22:47:15.281Z,6.10
2023-04-19T22:49:43.705Z,6.50
2023-04-19T22:52:12.952Z,6.70
2023-04-19T22:54:41.640Z,7.10
2023-04-19T22:57:11.104Z,7.60
2023-04-19T22:59:39.537Z,7.60
2023-04-19T23:02:08.084Z,8.20
2023-04-19T23:04:36.916Z,8.40
2023-04-19T23:07:05.458Z,9.00
2023-04-19T23:09:33.857Z,9.60
2023-04-19T23:12:02.275Z,9.40
2023-04-19T23:14:30.735Z,9.20
2023-04-19T23:16:59.269Z,9.60
2023-04-19T23:19:27.875Z,9.70
2023-04-19T23:21:56.278Z,9.80
2023-04-19T23:24:24.701Z,9.60
2023-04-19T23:26:53.194Z,9.70
2023-04-19T23:29:21.732Z,9.40
2023-04-19T23:31:50.231Z,9.20
2023-04-19T23:34:18.784Z,8.80
2023-04-19T23:36:47.202Z,9.10
2023-04-19T23:39:17.724Z,8.80
2023-04-19T23:41:46.488Z,8.70
2023-04-19T23:44:14.924Z,8.80
2023-04-19T23:46:43.370Z,8.60
2023-04-19T23:49:11.858Z,8.70
2023-04-19T23:51:40.262Z,9.00
2023-04-19T23:54:08.627Z,9.20
2023-04-19T23:56:37.034Z,9.10
2023-04-19T23:59:05.522Z,9.10
